sensor_id;sensor_type;location;lat;lon;timestamp;P1;durP1;ratioP1;P2;durP2;ratioP2
65033;SDS011;51601;51.356;12.458;2023-04-01T00:00:17;4.10;;;1.30;;
65033;SDS011;51601;51.356;12.458;2023-04-01T00:04:38;5.03;;;1.45;;
65033;SDS011;51601;51.356;12.458;2023-04-01T00:08:57;6.30;;;1.40;;
65033;SDS011;51601;51.356;12.458;2023-04-01T00:13:17;5.50;;;1.40;;
65033;SDS011;51601;51.356;12.458;2023-04-01T00:17:35;4.73;;;1.40;;
65033;SDS011;51601;51.356;12.458;2023-04-01T00:21:53;6.65;;;1.80;;
65033;SDS011;51601;51.356;12.458;2023-04-01T00:26:13;5.88;;;1.60;;
65033;SDS011;51601;51.356;12.458;2023-04-01T00:30:35;6.40;;;1.70;;
65033;SDS011;51601;51.356;12.458;2023-04-01T00:34:56;7.05;;;1.60;;
65033;SDS011;51601;51.356;12.458;2023-04-01T00:39:14;7.15;;;1.98;;
65033;SDS011;51601;51.356;12.458;2023-04-01T00:43:34;5.23;;;1.87;;
65033;SDS011;51601;51.356;12.458;2023-04-01T00:47:53;6.88;;;1.70;;
65033;SDS011;51601;51.356;12.458;2023-04-01T00:52:12;5.60;;;1.75;;
65033;SDS011;51601;51.356;12.458;2023-04-01T00:56:33;5.93;;;1.67;;
65033;SDS011;51601;51.356;12.458;2023-04-01T01:00:58;6.40;;;1.80;;
65033;SDS011;51601;51.356;12.458;2023-04-01T01:05:19;7.57;;;1.70;;
65033;SDS011;51601;51.356;12.458;2023-04-01T01:09:53;7.88;;;1.95;;
65033;SDS011;51601;51.356;12.458;2023-04-01T01:14:23;7.23;;;2.80;;
65033;SDS011;51601;51.356;12.458;2023-04-01T01:18:54;12.25;;;2.60;;
65033;SDS011;51601;51.356;12.458;2023-04-01T01:28:11;8.37;;;2.70;;
65033;SDS011;51601;51.356;12.458;2023-04-01T01:37:38;7.03;;;2.20;;
65033;SDS011;51601;51.356;12.458;2023-04-01T01:41:58;8.05;;;2.60;;
65033;SDS011;51601;51.356;12.458;2023-04-01T01:46:22;6.47;;;2.10;;
65033;SDS011;51601;51.356;12.458;2023-04-01T01:50:43;8.02;;;2.45;;
65033;SDS011;51601;51.356;12.458;2023-04-01T01:59:44;7.60;;;2.47;;
65033;SDS011;51601;51.356;12.458;2023-04-01T02:04:11;5.70;;;2.05;;
65033;SDS011;51601;51.356;12.458;2023-04-01T02:08:33;7.78;;;2.10;;
65033;SDS011;51601;51.356;12.458;2023-04-01T02:12:59;8.10;;;1.97;;
65033;SDS011;51601;51.356;12.458;2023-04-01T02:17:21;6.32;;;1.70;;
65033;SDS011;51601;51.356;12.458;2023-04-01T02:21:42;7.03;;;1.88;;
65033;SDS011;51601;51.356;12.458;2023-04-01T02:26:03;6.32;;;1.70;;
65033;SDS011;51601;51.356;12.458;2023-04-01T02:30:25;5.50;;;1.47;;
65033;SDS011;51601;51.356;12.458;2023-04-01T02:34:45;5.63;;;1.70;;
65033;SDS011;51601;51.356;12.458;2023-04-01T02:39:06;5.68;;;1.95;;
65033;SDS011;51601;51.356;12.458;2023-04-01T02:43:27;6.23;;;2.00;;
65033;SDS011;51601;51.356;12.458;2023-04-01T02:47:47;6.32;;;1.50;;
65033;SDS011;51601;51.356;12.458;2023-04-01T02:52:06;6.97;;;1.80;;
65033;SDS011;51601;51.356;12.458;2023-04-01T02:56:24;11.37;;;2.00;;
65033;SDS011;51601;51.356;12.458;2023-04-01T03:00:42;4.65;;;1.20;;
65033;SDS011;51601;51.356;12.458;2023-04-01T03:05:02;5.50;;;1.40;;
65033;SDS011;51601;51.356;12.458;2023-04-01T03:09:22;5.88;;;1.58;;
65033;SDS011;51601;51.356;12.458;2023-04-01T03:13:40;6.47;;;1.70;;
65033;SDS011;51601;51.356;12.458;2023-04-01T03:17:58;5.78;;;1.40;;
65033;SDS011;51601;51.356;12.458;2023-04-01T03:22:17;6.00;;;1.50;;
65033;SDS011;51601;51.356;12.458;2023-04-01T03:26:37;5.17;;;1.90;;
65033;SDS011;51601;51.356;12.458;2023-04-01T03:30:55;5.93;;;1.70;;
65033;SDS011;51601;51.356;12.458;2023-04-01T03:35:13;7.50;;;1.88;;
65033;SDS011;51601;51.356;12.458;2023-04-01T03:39:32;5.00;;;1.70;;
65033;SDS011;51601;51.356;12.458;2023-04-01T03:43:53;5.05;;;1.70;;
65033;SDS011;51601;51.356;12.458;2023-04-01T03:48:10;6.43;;;1.80;;
65033;SDS011;51601;51.356;12.458;2023-04-01T03:52:28;8.43;;;1.95;;
65033;SDS011;51601;51.356;12.458;2023-04-01T03:56:48;6.73;;;1.73;;
65033;SDS011;51601;51.356;12.458;2023-04-01T04:01:15;8.27;;;1.90;;
65033;SDS011;51601;51.356;12.458;2023-04-01T04:05:35;5.78;;;1.65;;
65033;SDS011;51601;51.356;12.458;2023-04-01T04:09:53;8.37;;;1.93;;
65033;SDS011;51601;51.356;12.458;2023-04-01T04:14:13;8.95;;;2.05;;
65033;SDS011;51601;51.356;12.458;2023-04-01T04:18:35;6.57;;;1.90;;
65033;SDS011;51601;51.356;12.458;2023-04-01T04:22:53;5.43;;;1.70;;
65033;SDS011;51601;51.356;12.458;2023-04-01T04:27:11;8.75;;;2.03;;
65033;SDS011;51601;51.356;12.458;2023-04-01T04:31:55;6.03;;;1.80;;
65033;SDS011;51601;51.356;12.458;2023-04-01T04:36:15;8.10;;;2.05;;
65033;SDS011;51601;51.356;12.458;2023-04-01T04:40:34;5.53;;;1.60;;
65033;SDS011;51601;51.356;12.458;2023-04-01T04:44:54;5.63;;;1.80;;
65033;SDS011;51601;51.356;12.458;2023-04-01T04:49:14;5.95;;;1.80;;
65033;SDS011;51601;51.356;12.458;2023-04-01T04:53:33;7.37;;;2.07;;
65033;SDS011;51601;51.356;12.458;2023-04-01T04:57:51;7.93;;;1.85;;
65033;SDS011;51601;51.356;12.458;2023-04-01T05:02:10;7.38;;;2.03;;
65033;SDS011;51601;51.356;12.458;2023-04-01T05:06:29;6.37;;;2.03;;
65033;SDS011;51601;51.356;12.458;2023-04-01T05:10:49;6.70;;;2.25;;
65033;SDS011;51601;51.356;12.458;2023-04-01T05:15:07;8.55;;;2.38;;
65033;SDS011;51601;51.356;12.458;2023-04-01T05:19:28;7.22;;;2.00;;
65033;SDS011;51601;51.356;12.458;2023-04-01T05:23:47;9.83;;;2.33;;
65033;SDS011;51601;51.356;12.458;2023-04-01T05:28:07;8.00;;;2.13;;
65033;SDS011;51601;51.356;12.458;2023-04-01T05:32:25;6.22;;;1.83;;
65033;SDS011;51601;51.356;12.458;2023-04-01T05:36:44;5.93;;;1.80;;
65033;SDS011;51601;51.356;12.458;2023-04-01T05:41:06;6.80;;;1.80;;
65033;SDS011;51601;51.356;12.458;2023-04-01T05:45:29;6.28;;;1.80;;
65033;SDS011;51601;51.356;12.458;2023-04-01T05:50:14;4.20;;;1.43;;
65033;SDS011;51601;51.356;12.458;2023-04-01T05:54:32;5.75;;;1.90;;
65033;SDS011;51601;51.356;12.458;2023-04-01T05:58:53;5.88;;;1.80;;
65033;SDS011;51601;51.356;12.458;2023-04-01T06:03:15;5.55;;;1.80;;
65033;SDS011;51601;51.356;12.458;2023-04-01T06:07:32;7.93;;;1.73;;
65033;SDS011;51601;51.356;12.458;2023-04-01T06:12:03;6.70;;;2.00;;
65033;SDS011;51601;51.356;12.458;2023-04-01T06:16:54;5.88;;;1.90;;
65033;SDS011;51601;51.356;12.458;2023-04-01T06:21:35;8.17;;;2.00;;
65033;SDS011;51601;51.356;12.458;2023-04-01T06:26:08;5.57;;;1.67;;
65033;SDS011;51601;51.356;12.458;2023-04-01T06:30:42;7.35;;;2.15;;
65033;SDS011;51601;51.356;12.458;2023-04-01T06:35:19;6.60;;;1.83;;
65033;SDS011;51601;51.356;12.458;2023-04-01T06:40:01;5.00;;;1.55;;
65033;SDS011;51601;51.356;12.458;2023-04-01T06:44:45;5.63;;;1.80;;
65033;SDS011;51601;51.356;12.458;2023-04-01T06:49:33;4.50;;;1.40;;
65033;SDS011;51601;51.356;12.458;2023-04-01T06:54:24;6.20;;;1.80;;
65033;SDS011;51601;51.356;12.458;2023-04-01T06:59:16;6.68;;;1.92;;
65033;SDS011;51601;51.356;12.458;2023-04-01T07:03:40;4.57;;;1.42;;
65033;SDS011;51601;51.356;12.458;2023-04-01T07:08:08;6.37;;;1.90;;
65033;SDS011;51601;51.356;12.458;2023-04-01T07:12:36;5.55;;;1.52;;
65033;SDS011;51601;51.356;12.458;2023-04-01T07:17:20;5.07;;;1.60;;
65033;SDS011;51601;51.356;12.458;2023-04-01T07:21:44;5.80;;;1.70;;
65033;SDS011;51601;51.356;12.458;2023-04-01T07:26:15;11.02;;;2.97;;
65033;SDS011;51601;51.356;12.458;2023-04-01T07:31:01;6.47;;;1.80;;
65033;SDS011;51601;51.356;12.458;2023-04-01T07:35:28;4.75;;;1.52;;
65033;SDS011;51601;51.356;12.458;2023-04-01T07:39:53;5.50;;;1.53;;
65033;SDS011;51601;51.356;12.458;2023-04-01T07:44:25;8.48;;;2.53;;
65033;SDS011;51601;51.356;12.458;2023-04-01T07:48:54;8.95;;;3.13;;
65033;SDS011;51601;51.356;12.458;2023-04-01T07:53:17;4.40;;;1.37;;
65033;SDS011;51601;51.356;12.458;2023-04-01T07:57:48;5.63;;;1.38;;
65033;SDS011;51601;51.356;12.458;2023-04-01T08:02:16;7.50;;;2.97;;
65033;SDS011;51601;51.356;12.458;2023-04-01T08:06:50;5.23;;;1.97;;
65033;SDS011;51601;51.356;12.458;2023-04-01T08:11:21;4.28;;;1.40;;
65033;SDS011;51601;51.356;12.458;2023-04-01T08:16:09;4.95;;;1.58;;
65033;SDS011;51601;51.356;12.458;2023-04-01T08:20:41;5.10;;;1.33;;
65033;SDS011;51601;51.356;12.458;2023-04-01T08:25:06;4.03;;;1.20;;
65033;SDS011;51601;51.356;12.458;2023-04-01T08:29:33;4.57;;;1.40;;
65033;SDS011;51601;51.356;12.458;2023-04-01T08:33:59;3.88;;;1.02;;
65033;SDS011;51601;51.356;12.458;2023-04-01T08:38:23;4.20;;;1.27;;
65033;SDS011;51601;51.356;12.458;2023-04-01T08:42:52;5.30;;;1.23;;
65033;SDS011;51601;51.356;12.458;2023-04-01T08:47:37;3.08;;;1.33;;
65033;SDS011;51601;51.356;12.458;2023-04-01T08:52:13;2.40;;;1.00;;
65033;SDS011;51601;51.356;12.458;2023-04-01T08:56:46;4.00;;;1.15;;
65033;SDS011;51601;51.356;12.458;2023-04-01T09:01:20;2.70;;;1.05;;
65033;SDS011;51601;51.356;12.458;2023-04-01T09:06:02;3.97;;;1.27;;
65033;SDS011;51601;51.356;12.458;2023-04-01T09:10:56;4.07;;;1.33;;
65033;SDS011;51601;51.356;12.458;2023-04-01T09:20:45;3.65;;;1.30;;
65033;SDS011;51601;51.356;12.458;2023-04-01T09:25:26;5.90;;;1.20;;
65033;SDS011;51601;51.356;12.458;2023-04-01T09:34:56;3.40;;;1.10;;
65033;SDS011;51601;51.356;12.458;2023-04-01T09:39:35;4.57;;;1.17;;
65033;SDS011;51601;51.356;12.458;2023-04-01T09:44:00;5.00;;;1.60;;
65033;SDS011;51601;51.356;12.458;2023-04-01T09:53:14;3.95;;;1.25;;
65033;SDS011;51601;51.356;12.458;2023-04-01T10:03:07;3.80;;;1.20;;
65033;SDS011;51601;51.356;12.458;2023-04-01T10:13:06;3.60;;;1.23;;
65033;SDS011;51601;51.356;12.458;2023-04-01T10:27:47;5.50;;;1.80;;
65033;SDS011;51601;51.356;12.458;2023-04-01T10:37:53;5.68;;;1.52;;
65033;SDS011;51601;51.356;12.458;2023-04-01T10:48:04;5.37;;;1.30;;
65033;SDS011;51601;51.356;12.458;2023-04-01T10:52:44;5.00;;;1.55;;
65033;SDS011;51601;51.356;12.458;2023-04-01T10:57:33;4.57;;;1.35;;
65033;SDS011;51601;51.356;12.458;2023-04-01T11:08:06;6.88;;;2.00;;
65033;SDS011;51601;51.356;12.458;2023-04-01T11:27:50;3.78;;;1.13;;
65033;SDS011;51601;51.356;12.458;2023-04-01T11:33:00;4.85;;;1.60;;
65033;SDS011;51601;51.356;12.458;2023-04-01T11:37:59;5.00;;;1.60;;
65033;SDS011;51601;51.356;12.458;2023-04-01T11:43:14;5.10;;;1.40;;
65033;SDS011;51601;51.356;12.458;2023-04-01T11:48:52;5.10;;;1.50;;
65033;SDS011;51601;51.356;12.458;2023-04-01T11:54:00;6.87;;;1.83;;
65033;SDS011;51601;51.356;12.458;2023-04-01T11:59:27;5.28;;;1.80;;
65033;SDS011;51601;51.356;12.458;2023-04-01T12:04:42;6.30;;;1.60;;
65033;SDS011;51601;51.356;12.458;2023-04-01T12:09:49;4.67;;;1.30;;
65033;SDS011;51601;51.356;12.458;2023-04-01T12:14:57;2.72;;;1.00;;
65033;SDS011;51601;51.356;12.458;2023-04-01T12:20:12;3.13;;;1.00;;
65033;SDS011;51601;51.356;12.458;2023-04-01T12:25:19;4.18;;;1.40;;
65033;SDS011;51601;51.356;12.458;2023-04-01T12:30:33;3.10;;;1.20;;
65033;SDS011;51601;51.356;12.458;2023-04-01T12:35:51;4.47;;;1.17;;
65033;SDS011;51601;51.356;12.458;2023-04-01T21:11:53;9.17;;;4.50;;
65033;SDS011;51601;51.356;12.458;2023-04-01T21:16:57;9.27;;;4.00;;
65033;SDS011;51601;51.356;12.458;2023-04-01T21:27:02;8.27;;;3.73;;
65033;SDS011;51601;51.356;12.458;2023-04-01T21:31:27;9.07;;;4.07;;
65033;SDS011;51601;51.356;12.458;2023-04-01T21:36:01;7.95;;;3.60;;
65033;SDS011;51601;51.356;12.458;2023-04-01T21:40:37;9.33;;;4.63;;
65033;SDS011;51601;51.356;12.458;2023-04-01T21:45:27;9.68;;;4.60;;
65033;SDS011;51601;51.356;12.458;2023-04-01T21:55:21;9.87;;;4.93;;
65033;SDS011;51601;51.356;12.458;2023-04-01T22:06:24;10.43;;;4.47;;
65033;SDS011;51601;51.356;12.458;2023-04-01T22:10:48;10.05;;;4.78;;
65033;SDS011;51601;51.356;12.458;2023-04-01T22:15:16;8.30;;;3.70;;
65033;SDS011;51601;51.356;12.458;2023-04-01T22:19:43;8.25;;;3.78;;
65033;SDS011;51601;51.356;12.458;2023-04-01T22:24:15;8.75;;;4.28;;
65033;SDS011;51601;51.356;12.458;2023-04-01T22:28:37;8.47;;;4.03;;
65033;SDS011;51601;51.356;12.458;2023-04-01T22:33:02;9.48;;;4.43;;
65033;SDS011;51601;51.356;12.458;2023-04-01T22:37:26;10.77;;;5.13;;
65033;SDS011;51601;51.356;12.458;2023-04-01T22:41:54;10.23;;;4.53;;
65033;SDS011;51601;51.356;12.458;2023-04-01T22:46:21;8.32;;;3.80;;
65033;SDS011;51601;51.356;12.458;2023-04-01T22:50:56;8.93;;;4.03;;
65033;SDS011;51601;51.356;12.458;2023-04-01T22:55:24;9.48;;;4.30;;
65033;SDS011;51601;51.356;12.458;2023-04-01T22:59:46;7.93;;;3.43;;
65033;SDS011;51601;51.356;12.458;2023-04-01T23:04:12;9.05;;;4.20;;
65033;SDS011;51601;51.356;12.458;2023-04-01T23:13:19;9.80;;;4.23;;
65033;SDS011;51601;51.356;12.458;2023-04-01T23:17:49;7.60;;;3.47;;
65033;SDS011;51601;51.356;12.458;2023-04-01T23:22:24;7.47;;;3.10;;
65033;SDS011;51601;51.356;12.458;2023-04-01T23:26:48;8.37;;;4.07;;
65033;SDS011;51601;51.356;12.458;2023-04-01T23:31:27;9.43;;;4.07;;
65033;SDS011;51601;51.356;12.458;2023-04-01T23:35:58;9.77;;;4.60;;
65033;SDS011;51601;51.356;12.458;2023-04-01T23:40:23;8.85;;;4.22;;
65033;SDS011;51601;51.356;12.458;2023-04-01T23:44:42;11.27;;;5.50;;
65033;SDS011;51601;51.356;12.458;2023-04-01T23:49:00;11.00;;;5.28;;
65033;SDS011;51601;51.356;12.458;2023-04-01T23:53:23;10.98;;;4.47;;
65033;SDS011;51601;51.356;12.458;2023-04-01T23:58:00;7.63;;;3.83;;
